Terminal Aerodrome Forecast
Issued by NWS

Home | Current Version | Previous Version | Text Only | Print | Product List | Glossary On
Versions: 1 2 3 4 5 6 7 8 9 10 11 12 13 14 15 16 17 18 19
657
FTUS43 KLSX 231728
TAFCPS
TAF
KCPS 231728Z 2318/2418 04010KT P6SM OVC008
     FM232000 03008KT P6SM OVC012
     FM241600 35009KT P6SM OVC020=

USA.gov is the U.S. government's official web portal to all federal, state and local government web resources and services.